createdAt,value
2023-03-04T00:01:02.761Z,102410.56
2023-03-04T00:03:04.242Z,102403.63
2023-03-04T00:05:06.280Z,102396.63
2023-03-04T00:07:07.870Z,102388.78
2023-03-04T00:09:09.528Z,102401.88
2023-03-04T00:11:11.256Z,102399.25
2023-03-04T00:13:12.918Z,102401.00
2023-03-04T00:15:14.408Z,102398.38
2023-03-04T00:17:15.872Z,102391.38
2023-03-04T00:19:17.332Z,102398.38
2023-03-04T00:21:18.777Z,102391.34
2023-03-04T00:23:20.226Z,102394.03
2023-03-04T00:25:21.704Z,102395.78
2023-03-04T00:27:23.147Z,102398.47
2023-03-04T00:29:24.706Z,102402.81
2023-03-04T00:31:26.216Z,102387.97
2023-03-04T00:33:27.759Z,102388.81
2023-03-04T00:35:29.263Z,102384.44
2023-03-04T00:37:30.727Z,102387.97
2023-03-04T00:39:32.184Z,102382.72
2023-03-04T00:41:33.720Z,102382.75
2023-03-04T00:43:35.241Z,102375.78
2023-03-04T00:45:36.830Z,102379.28
2023-03-04T00:47:38.300Z,102374.03
2023-03-04T00:49:39.849Z,102381.94
2023-03-04T00:51:41.292Z,102376.69
2023-03-04T00:53:42.742Z,102375.81
2023-03-04T00:55:44.242Z,102372.34
2023-03-04T00:57:45.766Z,102382.84
2023-03-04T00:59:47.278Z,102375.84
2023-03-04T01:01:48.736Z,102371.50
2023-03-04T01:03:50.195Z,102364.53
2023-03-04T01:05:51.646Z,102379.34
2023-03-04T01:07:53.221Z,102370.66
2023-03-04T01:09:54.681Z,102363.66
2023-03-04T01:11:56.430Z,102367.16
2023-03-04T01:13:57.939Z,102362.78
2023-03-04T01:15:59.482Z,102373.25
2023-03-04T01:18:00.985Z,102362.75
2023-03-04T01:20:02.877Z,102366.28
2023-03-04T01:22:04.432Z,102367.16
2023-03-04T01:24:06.131Z,102356.69
2023-03-04T01:26:07.618Z,102357.56
2023-03-04T01:28:09.073Z,102347.13
2023-03-04T01:30:11.417Z,102353.22
2023-03-04T01:32:12.967Z,102347.06
2023-03-04T01:34:14.532Z,102348.81
2023-03-04T01:36:16.018Z,102353.19
2023-03-04T01:38:17.541Z,102353.19
2023-03-04T01:40:19.282Z,102339.25
2023-03-04T01:42:23.120Z,102347.94
2023-03-04T01:44:24.834Z,102338.34
2023-03-04T01:46:26.881Z,102344.47
2023-03-04T01:48:37.022Z,102327.00
2023-03-04T01:50:38.616Z,102329.59
2023-03-04T01:52:41.116Z,102323.50
2023-03-04T01:54:42.848Z,102329.63
2023-03-04T01:56:46.456Z,102323.50
2023-03-04T01:59:06.987Z,102320.03
2023-03-04T02:01:11.473Z,102325.25
2023-03-04T02:03:16.388Z,102320.03
2023-03-04T02:05:18.089Z,102311.22
2023-03-04T02:07:19.577Z,102314.75
2023-03-04T02:09:21.346Z,102313.81
2023-03-04T02:11:22.929Z,102310.31
2023-03-04T02:13:24.434Z,102303.31
2023-03-04T02:15:26.112Z,102307.66
2023-03-04T02:17:28.691Z,102305.91
2023-03-04T02:20:05.278Z,102301.56
2023-03-04T02:22:06.942Z,102300.63
2023-03-04T02:24:35.484Z,102306.72
2023-03-04T02:26:37.494Z,102302.31
2023-03-04T02:28:39.251Z,102303.09
2023-03-04T02:30:40.785Z,102292.59
2023-03-04T02:32:42.288Z,102299.44
2023-03-04T02:34:50.801Z,102299.38
2023-03-04T02:36:53.836Z,102292.34
2023-03-04T02:39:00.292Z,102290.53
2023-03-04T02:41:03.337Z,102289.63
2023-03-04T02:43:04.831Z,102286.09
2023-03-04T02:45:06.970Z,102287.81
2023-03-04T02:47:10.782Z,102282.56
2023-03-04T02:49:12.500Z,102283.44
2023-03-04T02:51:13.968Z,102281.66
2023-03-04T02:53:15.907Z,102269.47
2023-03-04T02:55:17.391Z,102273.88
2023-03-04T02:57:19.274Z,102277.41
2023-03-04T02:59:21.936Z,102261.72
2023-03-04T03:01:27.749Z,102260.00
2023-03-04T03:03:29.217Z,102255.66
2023-03-04T03:05:32.839Z,102256.53
2023-03-04T03:07:34.944Z,102262.66
2023-03-04T03:09:36.469Z,102253.06
2023-03-04T03:11:38.027Z,102246.13
2023-03-04T03:13:39.470Z,102251.38
2023-03-04T03:15:42.349Z,102260.09
2023-03-04T03:17:44.094Z,102249.66
2023-03-04T03:19:45.516Z,102254.00
2023-03-04T03:21:47.004Z,102247.00
2023-03-04T03:23:48.624Z,102247.88
2023-03-04T03:25:50.064Z,102245.28
2023-03-04T03:27:51.535Z,102247.03
2023-03-04T03:29:53.025Z,102247.03
2023-03-04T03:31:55.050Z,102244.41
2023-03-04T03:33:56.503Z,102244.41
2023-03-04T03:35:58.653Z,102237.41
2023-03-04T03:38:00.187Z,102243.53
2023-03-04T03:40:01.722Z,102232.22
2023-03-04T03:42:03.393Z,102233.13
2023-03-04T03:44:04.974Z,102231.38
2023-03-04T03:46:06.494Z,102234.00
2023-03-04T03:48:07.976Z,102234.88
2023-03-04T03:50:09.919Z,102231.44
2023-03-04T03:52:11.400Z,102230.56
2023-03-04T03:54:13.059Z,102227.97
2023-03-04T03:56:14.532Z,102230.56
2023-03-04T03:58:16.107Z,102232.25
2023-03-04T04:00:18.005Z,102234.88
2023-03-04T04:02:19.685Z,102235.72
2023-03-04T04:04:21.212Z,102229.59
2023-03-04T04:06:22.663Z,102223.47
2023-03-04T04:08:24.133Z,102227.81
2023-03-04T04:10:25.611Z,102224.31
2023-03-04T04:12:27.134Z,102217.34
2023-03-04T04:14:28.631Z,102219.03
2023-03-04T04:16:30.558Z,102218.16
2023-03-04T04:18:32.072Z,102213.81
2023-03-04T04:20:34.146Z,102205.06
2023-03-04T04:22:35.671Z,102204.16
2023-03-04T04:24:37.146Z,102200.66
2023-03-04T04:26:38.815Z,102205.84
2023-03-04T04:28:41.208Z,102197.16
2023-03-04T04:30:42.897Z,102200.63
2023-03-04T04:32:44.606Z,102202.34
2023-03-04T04:34:46.082Z,102197.97
2023-03-04T04:36:47.827Z,102197.03
2023-03-04T04:38:49.463Z,102201.38
2023-03-04T04:40:51.217Z,102201.34
2023-03-04T04:42:52.690Z,102199.56
2023-03-04T04:44:54.299Z,102195.22
2023-03-04T04:46:55.802Z,102201.31
2023-03-04T04:48:57.263Z,102200.38
2023-03-04T04:50:58.706Z,102203.00
2023-03-04T04:53:00.368Z,102203.78
2023-03-04T04:55:02.396Z,102208.13
2023-03-04T04:57:03.855Z,102210.72
2023-03-04T04:59:08.591Z,102212.44
2023-03-04T05:01:10.480Z,102210.63
2023-03-04T05:03:11.961Z,102208.81
2023-03-04T05:05:13.484Z,102204.41
2023-03-04T05:07:14.938Z,102207.88
2023-03-04T05:09:16.382Z,102201.75
2023-03-04T05:11:19.491Z,102206.06
2023-03-04T05:13:21.311Z,102206.03
2023-03-04T05:15:22.853Z,102204.25
2023-03-04T05:17:24.286Z,102199.81
2023-03-04T05:19:25.793Z,102197.13
2023-03-04T05:21:27.253Z,102197.09
2023-03-04T05:23:32.467Z,102202.25
2023-03-04T05:25:33.922Z,102197.00
2023-03-04T05:27:35.394Z,102209.16
2023-03-04T05:29:36.840Z,102203.06
2023-03-04T05:31:38.273Z,102200.44
2023-03-04T05:33:40.306Z,102205.63
2023-03-04T05:35:43.127Z,102208.25
2023-03-04T05:37:44.604Z,102206.50
2023-03-04T05:39:46.046Z,102208.19
2023-03-04T05:41:47.503Z,102208.19
2023-03-04T05:43:49.988Z,102198.59
2023-03-04T05:45:51.492Z,102202.94
2023-03-04T05:47:54.154Z,102205.53
2023-03-04T05:49:55.665Z,102211.66
2023-03-04T05:51:57.143Z,102206.47
2023-03-04T05:53:58.579Z,102207.34
2023-03-04T05:56:00.276Z,102202.13
2023-03-04T05:58:01.712Z,102202.97
2023-03-04T06:00:05.708Z,102196.91
2023-03-04T06:02:07.207Z,102200.41
2023-03-04T06:04:08.770Z,102195.22
2023-03-04T06:06:10.500Z,102191.75
2023-03-04T06:08:13.058Z,102186.53
2023-03-04T06:10:17.085Z,102191.75
2023-03-04T06:12:18.584Z,102196.13
2023-03-04T06:14:20.044Z,102196.13
2023-03-04T06:16:21.757Z,102188.31
2023-03-04T06:18:24.953Z,102192.69
2023-03-04T06:20:26.469Z,102200.56
2023-03-04T06:22:27.946Z,102187.53
2023-03-04T06:24:29.393Z,102182.31
2023-03-04T06:26:31.227Z,102183.25
2023-03-04T06:28:32.678Z,102182.44
2023-03-04T06:30:34.343Z,102185.03
2023-03-04T06:32:35.900Z,102187.69
2023-03-04T06:34:37.418Z,102189.44
2023-03-04T06:36:38.872Z,102195.56
2023-03-04T06:38:40.380Z,102194.72
2023-03-04T06:40:41.829Z,102193.84
2023-03-04T06:42:43.590Z,102196.50
2023-03-04T06:44:45.245Z,102198.25
2023-03-04T06:46:46.828Z,102186.91
2023-03-04T06:48:48.360Z,102201.75
2023-03-04T06:50:49.796Z,102199.16
2023-03-04T06:52:51.297Z,102203.56
2023-03-04T06:54:52.818Z,102206.19
2023-03-04T06:56:54.343Z,102207.94
2023-03-04T06:58:55.816Z,102210.63
2023-03-04T07:00:57.342Z,102207.16
2023-03-04T07:02:59.593Z,102207.16
2023-03-04T07:05:01.113Z,102221.97
2023-03-04T07:07:02.571Z,102211.53
2023-03-04T07:09:04.142Z,102214.13
2023-03-04T07:11:06.163Z,102214.13
2023-03-04T07:13:07.639Z,102206.28
2023-03-04T07:15:09.706Z,102215.09
2023-03-04T07:17:11.180Z,102210.78
2023-03-04T07:19:12.717Z,102210.88
2023-03-04T07:21:15.385Z,102216.13
2023-03-04T07:23:16.833Z,102220.50
2023-03-04T07:25:18.323Z,102219.69
2023-03-04T07:27:19.835Z,102217.94
2023-03-04T07:29:21.350Z,102217.13
2023-03-04T07:31:28.336Z,102211.03
2023-03-04T07:33:29.772Z,102217.16
2023-03-04T07:35:31.277Z,102218.91
2023-03-04T07:37:32.724Z,102218.94
2023-03-04T07:39:34.194Z,102222.47
2023-03-04T07:41:37.211Z,102222.47
2023-03-04T07:43:38.691Z,102225.94
2023-03-04T07:45:40.201Z,102229.44
2023-03-04T07:47:41.665Z,102231.19
2023-03-04T07:49:43.105Z,102234.72
2023-03-04T07:51:44.586Z,102222.47
2023-03-04T07:53:49.110Z,102233.00
2023-03-04T07:55:50.781Z,102231.25
2023-03-04T07:57:52.228Z,102226.91
2023-03-04T07:59:53.753Z,102226.03
2023-03-04T08:01:55.197Z,102231.28
2023-03-04T08:03:57.626Z,102228.72
2023-03-04T08:05:59.072Z,102228.72
2023-03-04T08:08:00.574Z,102227.03
2023-03-04T08:10:02.054Z,102220.97
2023-03-04T08:12:03.786Z,102227.09
2023-03-04T08:14:05.683Z,102224.47
2023-03-04T08:16:08.091Z,102220.16
2023-03-04T08:18:09.899Z,102221.94
2023-03-04T08:20:12.062Z,102215.81
2023-03-04T08:22:13.522Z,102221.97
2023-03-04T08:24:15.040Z,102225.47
2023-03-04T08:26:18.743Z,102222.00
2023-03-04T08:28:20.236Z,102221.16
2023-03-04T08:30:21.887Z,102227.25
2023-03-04T08:32:23.723Z,102236.03
2023-03-04T08:34:27.770Z,102232.53
2023-03-04T08:36:29.278Z,102234.31
2023-03-04T08:38:31.940Z,102234.34
2023-03-04T08:40:33.622Z,102243.13
2023-03-04T08:42:35.086Z,102229.19
2023-03-04T08:44:36.499Z,102242.28
2023-03-04T08:46:39.906Z,102242.31
2023-03-04T08:48:41.340Z,102237.06
2023-03-04T08:50:45.008Z,102239.63
2023-03-04T08:52:46.541Z,102245.81
2023-03-04T08:54:48.008Z,102236.22
2023-03-04T08:56:49.488Z,102250.22
2023-03-04T08:58:50.930Z,102241.47
2023-03-04T09:00:52.360Z,102238.88
2023-03-04T09:02:55.740Z,102231.00
2023-03-04T09:04:57.248Z,102231.06
2023-03-04T09:06:58.766Z,102246.00
2023-03-04T09:09:00.340Z,102241.75
2023-03-04T09:11:02.494Z,102247.00
2023-03-04T09:13:04.153Z,102245.28
2023-03-04T09:15:13.970Z,102253.16
2023-03-04T09:17:15.470Z,102252.25
2023-03-04T09:19:16.910Z,102262.59
2023-03-04T09:21:18.359Z,102261.59
2023-03-04T09:23:19.862Z,102260.66
2023-03-04T09:25:21.457Z,102257.22
2023-03-04T09:27:22.931Z,102253.78
2023-03-04T09:29:24.796Z,102263.47
2023-03-04T09:31:27.444Z,102267.09
2023-03-04T09:33:28.959Z,102254.94
2023-03-04T09:35:30.566Z,102254.97
2023-03-04T09:37:32.284Z,102259.44
2023-03-04T09:39:33.806Z,102256.97
2023-03-04T09:41:45.916Z,102263.16
2023-03-04T09:43:49.182Z,102256.22
2023-03-04T09:45:57.266Z,102251.75
2023-03-04T09:47:59.429Z,102268.25
2023-03-04T09:50:04.155Z,102273.41
2023-03-04T09:52:15.780Z,102283.91
2023-03-04T09:54:50.412Z,102283.84
2023-03-04T09:56:57.214Z,102275.00
2023-03-04T09:59:16.913Z,102288.09
2023-03-04T10:01:28.378Z,102277.56
2023-03-04T10:03:43.200Z,102279.13
2023-03-04T10:05:58.777Z,102274.69
2023-03-04T10:08:18.040Z,102270.38
2023-03-04T10:10:26.173Z,102278.34
2023-03-04T10:12:31.326Z,102274.97
2023-03-04T10:14:38.177Z,102275.94
2023-03-04T10:16:53.930Z,102273.34
2023-03-04T10:19:40.686Z,102282.34
2023-03-04T10:21:48.089Z,102277.13
2023-03-04T10:23:49.814Z,102285.88
2023-03-04T10:25:54.174Z,102281.47
2023-03-04T10:27:59.702Z,102281.47
2023-03-04T10:30:01.196Z,102277.94
2023-03-04T10:32:02.891Z,102282.22
2023-03-04T10:34:05.764Z,102276.09
2023-03-04T10:36:25.751Z,102280.53
2023-03-04T10:38:32.408Z,102277.06
2023-03-04T10:40:38.861Z,102276.28
2023-03-04T10:42:40.506Z,102287.81
2023-03-04T10:44:44.452Z,102272.97
2023-03-04T10:46:48.004Z,102270.38
2023-03-04T10:48:49.816Z,102279.22
2023-03-04T10:50:51.390Z,102276.66
2023-03-04T10:52:55.803Z,102259.31
2023-03-04T10:55:13.166Z,102267.25
2023-03-04T10:57:18.722Z,102279.44
2023-03-04T10:59:33.884Z,102264.41
2023-03-04T11:01:35.409Z,102260.78
2023-03-04T11:03:37.405Z,102255.59
2023-03-04T11:05:38.874Z,102252.22
2023-03-04T11:07:54.433Z,102247.94
2023-03-04T11:10:09.236Z,102256.97
2023-03-04T11:12:13.762Z,102251.09
2023-03-04T11:14:30.289Z,102246.75
2023-03-04T11:16:34.738Z,102238.78
2023-03-04T11:18:52.279Z,102241.31
2023-03-04T11:20:55.267Z,102248.22
2023-03-04T11:23:05.174Z,102231.72
2023-03-04T11:25:12.360Z,102236.34
2023-03-04T11:27:13.895Z,102236.50
2023-03-04T11:29:33.812Z,102236.66
2023-03-04T11:31:42.964Z,102229.72
2023-03-04T11:34:02.997Z,102249.66
2023-03-04T11:36:22.127Z,102229.38
2023-03-04T11:38:39.058Z,102226.66
2023-03-04T11:40:49.111Z,102225.75
2023-03-04T11:43:02.828Z,102219.69
2023-03-04T11:45:27.497Z,102225.94
2023-03-04T11:48:24.005Z,102228.75
2023-03-04T11:50:41.630Z,102216.59
2023-03-04T11:52:45.769Z,102209.78
2023-03-04T11:55:08.299Z,102216.78
2023-03-04T11:57:40.901Z,102214.03
2023-03-04T11:59:50.672Z,102220.03
2023-03-04T12:02:10.599Z,102215.53
2023-03-04T12:04:21.563Z,102216.31
2023-03-04T12:06:58.583Z,102216.22
2023-03-04T12:09:06.243Z,102203.97
2023-03-04T12:11:13.834Z,102206.81
2023-03-04T12:13:50.678Z,102201.63
2023-03-04T12:15:58.038Z,102201.59
2023-03-04T12:18:11.167Z,102210.31
2023-03-04T12:20:45.873Z,102204.13
2023-03-04T12:22:57.900Z,102213.66
2023-03-04T12:25:19.327Z,102220.50
2023-03-04T12:27:27.449Z,102225.78
2023-03-04T12:29:46.111Z,102232.47
2023-03-04T12:31:50.601Z,102223.50
2023-03-04T12:34:21.435Z,102219.78
2023-03-04T12:37:00.048Z,102215.16
2023-03-04T12:39:30.497Z,102212.50
2023-03-04T12:41:50.501Z,102210.72
2023-03-04T12:44:17.179Z,102202.06
2023-03-04T12:46:19.367Z,102202.09
2023-03-04T12:48:39.507Z,102189.00
2023-03-04T12:50:55.875Z,102178.56
2023-03-04T12:53:27.429Z,102182.22
2023-03-04T12:55:40.460Z,102182.41
2023-03-04T12:57:42.932Z,102176.41
2023-03-04T13:00:06.094Z,102180.91
2023-03-04T13:02:13.630Z,102177.44
2023-03-04T13:04:27.830Z,102175.75
2023-03-04T13:06:47.749Z,102176.69
2023-03-04T13:08:49.158Z,102173.13
2023-03-04T13:10:51.601Z,102160.88
2023-03-04T13:13:00.563Z,102174.84
2023-03-04T13:15:08.150Z,102173.97
2023-03-04T13:17:43.924Z,102179.09
2023-03-04T13:19:52.689Z,102183.25
2023-03-04T13:21:54.565Z,102198.97
2023-03-04T13:23:56.630Z,102189.22
2023-03-04T13:25:58.157Z,102187.16
2023-03-04T13:28:05.238Z,102172.91
2023-03-04T13:30:35.670Z,102180.63
2023-03-04T13:32:38.713Z,102175.47
2023-03-04T13:34:49.076Z,102183.44
2023-03-04T13:36:56.483Z,102189.50
2023-03-04T13:39:18.157Z,102176.34
2023-03-04T13:41:19.635Z,102185.03
2023-03-04T13:43:36.620Z,102178.97
2023-03-04T13:45:40.067Z,102178.06
2023-03-04T13:47:44.798Z,102184.28
2023-03-04T13:49:46.344Z,102185.97
2023-03-04T13:51:48.000Z,102178.13
2023-03-04T13:53:54.679Z,102177.31
2023-03-04T13:56:08.296Z,102169.50
2023-03-04T13:58:24.013Z,102173.16
2023-03-04T14:00:26.429Z,102174.97
2023-03-04T14:02:34.147Z,102178.50
2023-03-04T14:04:40.511Z,102169.78
2023-03-04T14:06:47.695Z,102174.19
2023-03-04T14:08:51.200Z,102170.66
2023-03-04T14:10:56.520Z,102167.97
2023-03-04T14:13:00.578Z,102170.59
2023-03-04T14:15:23.896Z,102164.38
2023-03-04T14:17:32.281Z,102166.00
2023-03-04T14:19:39.127Z,102176.41
2023-03-04T14:21:45.562Z,102181.53
2023-03-04T14:23:47.087Z,102191.84
2023-03-04T14:25:48.675Z,102188.28
2023-03-04T14:27:50.901Z,102188.25
2023-03-04T14:30:01.210Z,102180.31
2023-03-04T14:32:05.992Z,102190.72
2023-03-04T14:34:07.566Z,102185.38
2023-03-04T14:36:24.550Z,102182.63
2023-03-04T14:38:36.812Z,102186.03
2023-03-04T14:40:45.442Z,102177.34
2023-03-04T14:42:48.119Z,102177.34
2023-03-04T14:44:51.366Z,102180.91
2023-03-04T14:47:06.950Z,102173.06
2023-03-04T14:49:16.124Z,102173.09
2023-03-04T14:51:29.744Z,102181.78
2023-03-04T14:53:33.162Z,102176.53
2023-03-04T14:55:35.427Z,102177.44
2023-03-04T14:57:36.931Z,102175.78
2023-03-04T14:59:38.448Z,102167.13
2023-03-04T15:01:40.116Z,102168.94
2023-03-04T15:04:04.799Z,102170.72
2023-03-04T15:06:16.203Z,102163.66
2023-03-04T15:08:17.620Z,102160.13
2023-03-04T15:10:26.156Z,102161.09
2023-03-04T15:12:31.106Z,102160.13
2023-03-04T15:14:50.250Z,102154.84
2023-03-04T15:16:56.922Z,102157.34
2023-03-04T15:19:23.275Z,102159.88
2023-03-04T15:21:31.767Z,102159.88
2023-03-04T15:23:33.845Z,102161.53
2023-03-04T15:25:35.740Z,102180.72
2023-03-04T15:27:37.456Z,102164.06
2023-03-04T15:29:39.012Z,102177.81
2023-03-04T15:31:42.069Z,102165.53
2023-03-04T15:33:43.778Z,102168.03
2023-03-04T15:35:53.518Z,102160.06
2023-03-04T15:37:55.949Z,102159.94
2023-03-04T15:39:58.817Z,102152.94
2023-03-04T15:42:00.837Z,102160.72
2023-03-04T15:44:02.394Z,102152.91
2023-03-04T15:46:04.023Z,102160.75
2023-03-04T15:48:08.165Z,102154.53
2023-03-04T15:50:10.927Z,102156.28
2023-03-04T15:52:22.696Z,102160.69
2023-03-04T15:54:28.426Z,102167.63
2023-03-04T15:56:32.516Z,102165.03
2023-03-04T15:58:35.239Z,102165.88
2023-03-04T16:00:37.233Z,102150.09
2023-03-04T16:02:39.671Z,102152.69
2023-03-04T16:04:41.318Z,102155.25
2023-03-04T16:06:45.520Z,102156.97
2023-03-04T16:08:49.267Z,102157.84
2023-03-04T16:10:52.023Z,102157.78
2023-03-04T16:12:54.529Z,102163.00
2023-03-04T16:14:56.008Z,102163.72
2023-03-04T16:16:57.482Z,102159.97
2023-03-04T16:18:58.957Z,102155.41
2023-03-04T16:21:00.473Z,102155.94
2023-03-04T16:23:03.046Z,102160.16
2023-03-04T16:25:04.951Z,102162.75
2023-03-04T16:27:10.789Z,102147.00
2023-03-04T16:29:12.351Z,102152.13
2023-03-04T16:31:15.634Z,102148.59
2023-03-04T16:33:17.367Z,102157.31
2023-03-04T16:35:20.133Z,102148.63
2023-03-04T16:37:21.877Z,102146.94
2023-03-04T16:39:25.880Z,102140.72
2023-03-04T16:41:30.668Z,102139.00
2023-03-04T16:43:32.178Z,102131.06
2023-03-04T16:45:36.262Z,102143.19
2023-03-04T16:47:37.728Z,102131.91
2023-03-04T16:49:39.612Z,102139.75
2023-03-04T16:51:49.076Z,102149.38
2023-03-04T16:53:56.597Z,102144.09
2023-03-04T16:56:01.320Z,102141.44
2023-03-04T16:58:03.665Z,102145.94
2023-03-04T17:00:06.693Z,102145.91
2023-03-04T17:02:20.129Z,102146.00
2023-03-04T17:04:22.246Z,102151.16
2023-03-04T17:06:24.397Z,102145.97
2023-03-04T17:08:25.858Z,102147.53
2023-03-04T17:10:27.480Z,102145.69
2023-03-04T17:12:29.004Z,102142.06
2023-03-04T17:14:30.491Z,102139.34
2023-03-04T17:16:33.031Z,102131.41
2023-03-04T17:18:34.516Z,102141.88
2023-03-04T17:20:35.986Z,102141.00
2023-03-04T17:22:37.526Z,102146.97
2023-03-04T17:24:39.019Z,102154.75
2023-03-04T17:26:42.561Z,102152.16
2023-03-04T17:28:44.003Z,102151.19
2023-03-04T17:30:45.454Z,102145.03
2023-03-04T17:32:46.923Z,102139.72
2023-03-04T17:34:48.658Z,102148.38
2023-03-04T17:36:50.116Z,102145.78
2023-03-04T17:38:52.033Z,102144.06
2023-03-04T17:40:53.610Z,102151.06
2023-03-04T17:42:55.066Z,102148.47
2023-03-04T17:44:56.595Z,102142.25
2023-03-04T17:46:58.221Z,102147.47
2023-03-04T17:48:59.846Z,102145.75
2023-03-04T17:51:01.459Z,102153.53
2023-03-04T17:53:02.976Z,102150.97
2023-03-04T17:55:04.681Z,102150.94
2023-03-04T17:57:06.552Z,102149.16
2023-03-04T17:59:12.620Z,102148.31
2023-03-04T18:01:20.062Z,102147.47
2023-03-04T18:03:21.576Z,102146.53
2023-03-04T18:05:23.140Z,102152.59
2023-03-04T18:07:24.693Z,102156.97
2023-03-04T18:09:26.764Z,102149.06
2023-03-04T18:11:28.474Z,102149.91
2023-03-04T18:13:30.223Z,102150.78
2023-03-04T18:15:31.963Z,102143.81
2023-03-04T18:17:33.450Z,102142.03
2023-03-04T18:19:34.987Z,102148.09
2023-03-04T18:21:36.553Z,102153.34
2023-03-04T18:23:38.120Z,102152.50
2023-03-04T18:25:40.062Z,102145.53
2023-03-04T18:27:42.500Z,102149.91
2023-03-04T18:29:43.964Z,102147.19
2023-03-04T18:31:45.495Z,102148.09
2023-03-04T18:33:47.545Z,102148.00
2023-03-04T18:35:49.279Z,102148.81
2023-03-04T18:37:51.014Z,102154.81
2023-03-04T18:39:52.587Z,102145.97
2023-03-04T18:41:54.081Z,102152.06
2023-03-04T18:43:55.778Z,102147.66
2023-03-04T18:46:04.959Z,102150.28
2023-03-04T18:48:06.602Z,102152.81
2023-03-04T18:50:09.308Z,102145.88
2023-03-04T18:52:10.759Z,102152.81
2023-03-04T18:54:12.206Z,102152.84
2023-03-04T18:56:17.542Z,102150.22
2023-03-04T18:58:19.442Z,102147.53
2023-03-04T19:00:23.511Z,102150.13
2023-03-04T19:02:33.171Z,102150.13
2023-03-04T19:04:34.757Z,102144.09
2023-03-04T19:06:36.301Z,102155.34
2023-03-04T19:08:38.050Z,102152.78
2023-03-04T19:10:39.523Z,102152.81
2023-03-04T19:12:40.978Z,102150.22
2023-03-04T19:14:42.481Z,102147.63
2023-03-04T19:16:44.076Z,102145.91
2023-03-04T19:18:45.672Z,102152.78
2023-03-04T19:20:47.307Z,102157.88
2023-03-04T19:22:49.030Z,102153.50
2023-03-04T19:24:50.591Z,102157.03
2023-03-04T19:26:52.055Z,102157.03
2023-03-04T19:28:53.522Z,102150.06
2023-03-04T19:30:58.853Z,102151.75
2023-03-04T19:33:00.490Z,102154.44
2023-03-04T19:35:01.977Z,102158.72
2023-03-04T19:37:03.431Z,102159.69
2023-03-04T19:39:05.661Z,102162.19
2023-03-04T19:41:12.215Z,102163.94
2023-03-04T19:43:14.677Z,102163.03
2023-03-04T19:45:16.192Z,102161.28
2023-03-04T19:47:17.795Z,102160.25
2023-03-04T19:49:19.646Z,102165.38
2023-03-04T19:51:23.792Z,102170.56
2023-03-04T19:53:25.894Z,102158.31
2023-03-04T19:55:27.422Z,102163.50
2023-03-04T19:57:29.352Z,102158.28
2023-03-04T19:59:30.818Z,102154.72
2023-03-04T20:01:35.183Z,102150.38
2023-03-04T20:03:36.764Z,102154.69
2023-03-04T20:05:38.491Z,102145.09
2023-03-04T20:07:40.323Z,102142.50
2023-03-04T20:09:41.788Z,102148.63
2023-03-04T20:11:57.327Z,102145.22
2023-03-04T20:14:04.449Z,102140.00
2023-03-04T20:16:10.874Z,102144.34
2023-03-04T20:18:12.463Z,102139.97
2023-03-04T20:20:14.350Z,102136.50
2023-03-04T20:22:15.849Z,102134.72
2023-03-04T20:24:19.066Z,102143.44
2023-03-04T20:26:20.596Z,102141.69
2023-03-04T20:28:23.365Z,102145.09
2023-03-04T20:30:25.024Z,102146.88
2023-03-04T20:32:26.519Z,102148.59
2023-03-04T20:34:28.102Z,102150.28
2023-03-04T20:36:30.907Z,102145.09
2023-03-04T20:38:32.414Z,102147.72
2023-03-04T20:40:35.901Z,102140.72
2023-03-04T20:42:37.474Z,102143.34
2023-03-04T20:44:38.963Z,102145.09
2023-03-04T20:46:45.007Z,102146.91
2023-03-04T20:48:46.481Z,102140.00
2023-03-04T20:50:47.923Z,102147.78
2023-03-04T20:52:49.458Z,102148.66
2023-03-04T20:54:50.962Z,102138.22
2023-03-04T20:56:52.444Z,102141.66
2023-03-04T20:58:55.391Z,102138.97
2023-03-04T21:00:56.871Z,102144.19
2023-03-04T21:02:58.370Z,102141.56
2023-03-04T21:05:01.325Z,102136.34
2023-03-04T21:07:02.900Z,102133.69
2023-03-04T21:09:07.315Z,102135.44
2023-03-04T21:11:16.414Z,102129.34
2023-03-04T21:13:21.373Z,102133.69
2023-03-04T21:15:22.825Z,102131.00
2023-03-04T21:17:24.642Z,102124.03
2023-03-04T21:19:36.145Z,102125.72
2023-03-04T21:21:37.597Z,102121.38
2023-03-04T21:23:39.395Z,102120.53
2023-03-04T21:25:41.511Z,102121.38
2023-03-04T21:27:43.257Z,102118.78
2023-03-04T21:29:44.968Z,102119.66
2023-03-04T21:31:50.284Z,102121.38
2023-03-04T21:33:54.315Z,102122.25
2023-03-04T21:35:55.805Z,102124.91
2023-03-04T21:37:57.277Z,102128.38
2023-03-04T21:40:01.197Z,102128.34
2023-03-04T21:42:03.885Z,102118.66
2023-03-04T21:44:05.654Z,102120.31
2023-03-04T21:46:07.333Z,102115.09
2023-03-04T21:48:08.791Z,102115.94
2023-03-04T21:50:10.898Z,102107.09
2023-03-04T21:52:13.157Z,102107.03
2023-03-04T21:54:15.330Z,102108.72
2023-03-04T21:56:16.836Z,102103.53
2023-03-04T21:58:18.393Z,102096.53
2023-03-04T22:00:20.396Z,102106.97
2023-03-04T22:02:22.536Z,102104.31
2023-03-04T22:04:24.013Z,102101.69
2023-03-04T22:06:27.164Z,102090.41
2023-03-04T22:08:28.609Z,102097.34
2023-03-04T22:10:31.057Z,102099.13
2023-03-04T22:12:32.662Z,102100.88
2023-03-04T22:14:34.177Z,102102.59
2023-03-04T22:16:42.480Z,102097.38
2023-03-04T22:18:50.396Z,102094.81
2023-03-04T22:20:53.570Z,102094.78
2023-03-04T22:22:55.032Z,102086.13
2023-03-04T22:24:59.609Z,102085.28
2023-03-04T22:27:01.172Z,102087.84
2023-03-04T22:29:02.666Z,102084.41
2023-03-04T22:31:30.210Z,102081.81
2023-03-04T22:33:37.124Z,102078.34
2023-03-04T22:35:41.590Z,102076.53
2023-03-04T22:37:44.191Z,102072.22
2023-03-04T22:39:45.648Z,102077.47
2023-03-04T22:41:47.347Z,102071.41
2023-03-04T22:43:49.305Z,102076.56
2023-03-04T22:45:50.903Z,102069.59
2023-03-04T22:47:53.085Z,102070.53
2023-03-04T22:49:54.557Z,102072.25
2023-03-04T22:51:56.034Z,102066.16
2023-03-04T22:53:58.088Z,102073.09
2023-03-04T22:55:59.978Z,102064.38
2023-03-04T22:58:03.311Z,102059.16
2023-03-04T23:00:16.090Z,102056.56
2023-03-04T23:02:17.620Z,102067.03
2023-03-04T23:04:19.084Z,102057.53
2023-03-04T23:06:25.115Z,102055.72
2023-03-04T23:08:26.569Z,102054.84
2023-03-04T23:10:28.081Z,102054.00
2023-03-04T23:12:29.573Z,102057.53
2023-03-04T23:14:31.113Z,102057.53
2023-03-04T23:16:36.850Z,102052.34
2023-03-04T23:18:40.411Z,102047.13
2023-03-04T23:20:43.324Z,102047.13
2023-03-04T23:22:46.415Z,102048.00
2023-03-04T23:24:47.848Z,102037.59
2023-03-04T23:26:49.585Z,102037.59
2023-03-04T23:28:51.696Z,102029.78
2023-03-04T23:30:53.247Z,102029.78
2023-03-04T23:32:54.995Z,102029.81
2023-03-04T23:34:56.722Z,102037.75
2023-03-04T23:36:58.224Z,102025.59
2023-03-04T23:39:00.764Z,102019.44
2023-03-04T23:41:02.232Z,102021.13